createdAt,value
2019-05-23T00:00:31.656Z,80.70
2019-05-23T00:01:31.640Z,80.09
2019-05-23T00:02:31.643Z,80.80
2019-05-23T00:03:31.623Z,80.70
2019-05-23T00:04:31.627Z,81.01
2019-05-23T00:05:31.599Z,79.62
2019-05-23T00:06:31.586Z,80.23
2019-05-23T00:07:31.577Z,80.91
2019-05-23T00:08:31.588Z,80.91
2019-05-23T00:09:31.574Z,81.01
2019-05-23T00:10:31.546Z,80.64
2019-05-23T00:11:31.531Z,80.19
2019-05-23T00:12:31.517Z,80.50
2019-05-23T00:13:31.502Z,79.79
2019-05-23T00:14:31.517Z,79.79
2019-05-23T00:15:31.489Z,79.89
2019-05-23T00:16:31.470Z,80.43
2019-05-23T00:17:31.462Z,80.40
2019-05-23T00:18:31.477Z,80.74
2019-05-23T00:19:31.443Z,80.19
2019-05-23T00:20:31.455Z,80.94
2019-05-23T00:21:31.418Z,80.09
2019-05-23T00:22:31.405Z,80.19
2019-05-23T00:23:31.396Z,80.33
2019-05-23T00:24:31.389Z,80.43
2019-05-23T00:25:31.389Z,80.74
2019-05-23T00:26:31.365Z,80.84
2019-05-23T00:27:31.356Z,80.43
2019-05-23T00:28:31.341Z,80.43
2019-05-23T00:29:31.329Z,80.13
2019-05-23T00:30:31.336Z,80.64
2019-05-23T00:31:31.315Z,80.84
2019-05-23T00:32:31.297Z,79.82
2019-05-23T00:33:31.286Z,80.43
2019-05-23T00:34:31.475Z,80.23
2019-05-23T00:35:31.289Z,80.23
2019-05-23T00:36:31.252Z,81.04
2019-05-23T00:37:31.263Z,81.15
2019-05-23T00:38:31.239Z,80.94
2019-05-23T00:39:31.219Z,80.54
2019-05-23T00:40:31.235Z,80.33
2019-05-23T00:41:31.195Z,79.93
2019-05-23T00:42:31.184Z,80.13
2019-05-23T00:43:31.180Z,80.43
2019-05-23T00:44:31.161Z,80.84
2019-05-23T00:45:31.165Z,80.98
2019-05-23T00:46:31.143Z,80.54
2019-05-23T00:47:31.125Z,81.25
2019-05-23T00:48:31.124Z,80.33
2019-05-23T00:49:31.105Z,80.84
2019-05-23T00:50:31.134Z,80.94
2019-05-23T00:51:31.084Z,80.33
2019-05-23T00:52:31.072Z,80.74
2019-05-23T00:53:31.068Z,80.74
2019-05-23T00:54:31.046Z,80.02
2019-05-23T00:55:31.077Z,80.64
2019-05-23T00:56:31.034Z,80.64
2019-05-23T00:57:31.018Z,79.93
2019-05-23T00:58:31.008Z,80.54
2019-05-23T00:59:31.020Z,80.84
2019-05-23T01:00:30.986Z,80.64
2019-05-23T01:01:30.988Z,80.74
2019-05-23T01:02:30.959Z,80.54
2019-05-23T01:03:30.953Z,81.25
2019-05-23T01:04:30.942Z,81.76
2019-05-23T01:05:30.922Z,81.49
2019-05-23T01:06:30.939Z,80.64
2019-05-23T01:07:30.911Z,81.15
2019-05-23T01:08:30.894Z,80.98
2019-05-23T01:09:30.888Z,80.94
2019-05-23T01:10:30.872Z,80.84
2019-05-23T01:11:30.881Z,80.43
2019-05-23T01:12:30.847Z,80.23
2019-05-23T01:13:30.842Z,80.68
2019-05-23T01:14:30.830Z,80.13
2019-05-23T01:15:30.820Z,80.57
2019-05-23T01:16:30.820Z,80.47
2019-05-23T01:17:30.791Z,80.13
2019-05-23T01:18:30.797Z,80.84
2019-05-23T01:19:30.775Z,80.23
2019-05-23T01:20:30.763Z,79.93
2019-05-23T01:21:30.761Z,80.43
2019-05-23T01:22:30.746Z,80.43
2019-05-23T01:23:30.737Z,80.64
2019-05-23T01:24:30.721Z,80.02
2019-05-23T01:25:30.721Z,79.93
2019-05-23T01:26:30.789Z,80.43
2019-05-23T01:27:30.704Z,80.54
2019-05-23T01:28:30.668Z,81.15
2019-05-23T01:29:37.418Z,81.04
2019-05-23T01:30:31.650Z,81.15
2019-05-23T01:31:30.662Z,81.35
2019-05-23T01:32:30.634Z,81.59
2019-05-23T01:33:30.623Z,80.88
2019-05-23T01:34:30.609Z,80.54
2019-05-23T01:35:30.656Z,80.57
2019-05-23T01:36:30.586Z,79.93
2019-05-23T01:37:30.601Z,80.27
2019-05-23T01:38:30.562Z,80.33
2019-05-23T01:39:30.550Z,81.15
2019-05-23T01:40:30.535Z,80.33
2019-05-23T01:41:30.524Z,80.16
2019-05-23T01:42:30.534Z,79.96
2019-05-23T01:43:30.501Z,79.96
2019-05-23T01:44:30.496Z,81.39
2019-05-23T01:45:30.484Z,80.57
2019-05-23T01:46:30.471Z,80.27
2019-05-23T01:47:30.476Z,81.09
2019-05-23T01:48:30.464Z,80.88
2019-05-23T01:49:30.437Z,80.98
2019-05-23T01:50:30.430Z,80.37
2019-05-23T01:51:30.412Z,80.68
2019-05-23T01:52:30.433Z,81.59
2019-05-23T01:53:30.403Z,80.98
2019-05-23T01:54:30.384Z,80.88
2019-05-23T01:55:30.473Z,82.10
2019-05-23T01:56:30.363Z,81.49
2019-05-23T01:57:30.350Z,81.70
2019-05-23T01:58:30.356Z,81.18
2019-05-23T01:59:30.331Z,80.78
2019-05-23T02:00:30.314Z,81.09
2019-05-23T02:01:30.312Z,80.88
2019-05-23T02:02:30.291Z,80.98
2019-05-23T02:03:30.296Z,80.88
2019-05-23T02:04:30.274Z,80.78
2019-05-23T02:05:30.283Z,80.10
2019-05-23T02:06:30.248Z,80.82
2019-05-23T02:07:30.241Z,81.32
2019-05-23T02:08:30.250Z,81.73
2019-05-23T02:09:30.210Z,81.94
2019-05-23T02:10:30.220Z,81.43
2019-05-23T02:11:30.189Z,82.04
2019-05-23T02:12:30.179Z,82.00
2019-05-23T02:13:30.169Z,81.23
2019-05-23T02:14:30.171Z,81.02
2019-05-23T02:15:30.151Z,81.63
2019-05-23T02:16:30.146Z,81.23
2019-05-23T02:17:30.121Z,81.94
2019-05-23T02:18:30.112Z,80.91
2019-05-23T02:19:30.178Z,81.23
2019-05-23T02:20:30.107Z,82.14
2019-05-23T02:21:30.075Z,81.84
2019-05-23T02:22:30.077Z,81.43
2019-05-23T02:23:30.055Z,81.53
2019-05-23T02:24:30.050Z,81.98
2019-05-23T02:25:30.111Z,82.24
2019-05-23T02:26:30.020Z,81.57
2019-05-23T02:27:30.024Z,81.94
2019-05-23T02:28:30.014Z,82.08
2019-05-23T02:29:30.017Z,81.43
2019-05-23T02:30:34.808Z,81.46
2019-05-23T02:31:30.967Z,81.67
2019-05-23T02:32:29.965Z,81.57
2019-05-23T02:33:29.951Z,82.18
2019-05-23T02:34:29.949Z,82.18
2019-05-23T02:35:29.954Z,81.57
2019-05-23T02:36:29.914Z,82.08
2019-05-23T02:37:29.908Z,82.12
2019-05-23T02:38:29.886Z,82.12
2019-05-23T02:39:29.888Z,82.12
2019-05-23T02:40:29.869Z,82.83
2019-05-23T02:41:29.870Z,82.32
2019-05-23T02:42:29.843Z,81.91
2019-05-23T02:43:29.849Z,82.73
2019-05-23T02:44:29.821Z,82.63
2019-05-23T02:45:29.822Z,82.83
2019-05-23T02:46:29.828Z,83.04
2019-05-23T02:47:29.789Z,83.44
2019-05-23T02:48:29.781Z,83.75
2019-05-23T02:49:29.766Z,83.24
2019-05-23T02:50:29.757Z,82.63
2019-05-23T02:51:29.768Z,82.93
2019-05-23T02:52:29.731Z,82.63
2019-05-23T02:53:29.723Z,82.83
2019-05-23T02:54:29.737Z,83.14
2019-05-23T02:55:29.703Z,83.54
2019-05-23T02:56:29.711Z,82.63
2019-05-23T02:57:29.759Z,82.93
2019-05-23T02:58:29.673Z,82.63
2019-05-23T02:59:29.658Z,82.22
2019-05-23T03:00:29.647Z,83.24
2019-05-23T03:01:29.666Z,83.04
2019-05-23T03:02:29.631Z,83.14
2019-05-23T03:03:29.613Z,83.34
2019-05-23T03:04:29.601Z,82.73
2019-05-23T03:05:29.611Z,83.14
2019-05-23T03:06:29.598Z,82.83
2019-05-23T03:07:29.569Z,83.04
2019-05-23T03:08:29.564Z,83.34
2019-05-23T03:09:29.544Z,83.65
2019-05-23T03:10:29.532Z,83.65
2019-05-23T03:11:29.532Z,82.83
2019-05-23T03:12:29.530Z,83.54
2019-05-23T03:13:29.510Z,83.44
2019-05-23T03:14:29.494Z,83.38
2019-05-23T03:15:29.480Z,83.34
2019-05-23T03:16:29.465Z,83.54
2019-05-23T03:17:29.480Z,83.24
2019-05-23T03:18:34.042Z,83.38
2019-05-23T03:19:30.432Z,83.14
2019-05-23T03:20:29.427Z,83.34
2019-05-23T03:21:29.409Z,83.28
2019-05-23T03:22:29.423Z,83.28
2019-05-23T03:23:29.393Z,82.87
2019-05-23T03:24:29.376Z,83.14
2019-05-23T03:25:29.368Z,82.63
2019-05-23T03:26:29.356Z,82.97
2019-05-23T03:27:29.369Z,83.24
2019-05-23T03:28:29.335Z,83.28
2019-05-23T03:29:29.325Z,83.07
2019-05-23T03:30:29.311Z,83.24
2019-05-23T03:31:31.605Z,83.28
2019-05-23T03:32:37.392Z,83.28
2019-05-23T03:33:30.289Z,82.87
2019-05-23T03:34:29.268Z,83.59
2019-05-23T03:35:29.257Z,83.42
2019-05-23T03:36:29.246Z,83.62
2019-05-23T03:37:29.267Z,83.59
2019-05-23T03:38:29.227Z,83.38
2019-05-23T03:39:29.207Z,83.79
2019-05-23T03:40:29.198Z,83.48
2019-05-23T03:41:29.191Z,83.38
2019-05-23T03:42:29.203Z,83.69
2019-05-23T03:43:29.196Z,83.38
2019-05-23T03:44:29.195Z,83.18
2019-05-23T03:45:29.144Z,83.59
2019-05-23T03:46:29.135Z,83.79
2019-05-23T03:47:29.123Z,83.48
2019-05-23T03:48:29.130Z,84.09
2019-05-23T03:49:29.095Z,83.79
2019-05-23T03:50:29.182Z,83.18
2019-05-23T03:51:29.076Z,83.38
2019-05-23T03:52:29.073Z,83.48
2019-05-23T03:53:29.070Z,83.59
2019-05-23T03:54:29.056Z,83.07
2019-05-23T03:55:29.034Z,83.18
2019-05-23T03:56:29.808Z,83.59
2019-05-23T03:57:29.017Z,83.38
2019-05-23T03:58:29.023Z,83.38
2019-05-23T03:59:28.992Z,84.00
2019-05-23T04:00:28.977Z,83.07
2019-05-23T04:01:46.043Z,83.38
2019-05-23T04:02:29.965Z,83.52
2019-05-23T04:03:28.970Z,83.52
2019-05-23T04:04:28.946Z,83.52
2019-05-23T04:05:28.932Z,83.38
2019-05-23T04:06:28.909Z,83.48
2019-05-23T04:07:28.901Z,84.24
2019-05-23T04:08:28.913Z,84.61
2019-05-23T04:09:28.877Z,83.38
2019-05-23T04:10:28.873Z,83.42
2019-05-23T04:11:28.859Z,83.59
2019-05-23T04:12:28.845Z,83.38
2019-05-23T04:13:28.866Z,83.83
2019-05-23T04:14:28.829Z,83.28
2019-05-23T04:15:28.822Z,83.48
2019-05-23T04:16:30.689Z,83.52
2019-05-23T04:17:28.796Z,83.52
2019-05-23T04:18:28.801Z,83.79
2019-05-23T04:19:28.762Z,83.18
2019-05-23T04:20:28.752Z,83.62
2019-05-23T04:21:28.743Z,83.48
2019-05-23T04:22:28.733Z,83.62
2019-05-23T04:23:28.748Z,83.62
2019-05-23T04:24:28.710Z,83.52
2019-05-23T04:25:28.699Z,83.32
2019-05-23T04:26:28.686Z,83.93
2019-05-23T04:27:28.677Z,84.34
2019-05-23T04:28:28.675Z,84.24
2019-05-23T04:29:28.696Z,84.89
2019-05-23T04:30:28.643Z,84.38
2019-05-23T04:31:28.632Z,84.34
2019-05-23T04:32:28.621Z,84.58
2019-05-23T04:33:28.609Z,84.58
2019-05-23T04:34:28.618Z,84.69
2019-05-23T04:35:28.586Z,84.89
2019-05-23T04:36:28.573Z,84.89
2019-05-23T04:37:28.563Z,84.89
2019-05-23T04:38:28.570Z,84.38
2019-05-23T04:39:28.560Z,84.48
2019-05-23T04:40:28.538Z,85.14
2019-05-23T04:41:28.519Z,85.44
2019-05-23T04:42:28.510Z,85.96
2019-05-23T04:43:28.510Z,85.24
2019-05-23T04:44:28.510Z,86.36
2019-05-23T04:45:28.479Z,85.44
2019-05-23T04:46:28.475Z,85.55
2019-05-23T04:47:28.455Z,86.77
2019-05-23T04:48:28.450Z,86.36
2019-05-23T04:49:28.450Z,86.36
2019-05-23T04:50:28.425Z,86.61
2019-05-23T04:51:28.417Z,86.51
2019-05-23T04:52:28.401Z,86.91
2019-05-23T04:53:28.392Z,86.91
2019-05-23T04:54:28.391Z,86.81
2019-05-23T04:55:28.364Z,87.02
2019-05-23T04:56:28.360Z,87.47
2019-05-23T04:57:28.347Z,87.32
2019-05-23T04:58:28.326Z,87.67
2019-05-23T04:59:28.341Z,87.98
2019-05-23T05:00:28.311Z,88.08
2019-05-23T05:01:28.303Z,87.88
2019-05-23T05:02:28.284Z,88.39
2019-05-23T05:03:28.281Z,88.29
2019-05-23T05:04:28.287Z,88.29
2019-05-23T05:05:28.249Z,88.39
2019-05-23T05:06:28.233Z,88.29
2019-05-23T05:07:28.238Z,88.59
2019-05-23T05:08:28.231Z,88.08
2019-05-23T05:09:28.259Z,88.39
2019-05-23T05:10:28.201Z,88.59
2019-05-23T05:11:30.541Z,88.39
2019-05-23T05:12:28.171Z,88.29
2019-05-23T05:13:28.164Z,88.49
2019-05-23T05:14:28.171Z,87.98
2019-05-23T05:15:28.137Z,88.04
2019-05-23T05:16:28.126Z,88.14
2019-05-23T05:17:28.122Z,87.22
2019-05-23T05:18:28.111Z,88.14
2019-05-23T05:19:28.119Z,88.20
2019-05-23T05:20:28.095Z,86.57
2019-05-23T05:21:28.081Z,85.55
2019-05-23T05:22:28.064Z,85.75
2019-05-23T05:23:28.050Z,86.32
2019-05-23T05:24:28.062Z,84.48
2019-05-23T05:25:28.055Z,84.17
2019-05-23T05:26:28.026Z,85.40
2019-05-23T05:27:28.019Z,85.10
2019-05-23T05:28:27.997Z,84.17
2019-05-23T05:29:27.985Z,84.58
2019-05-23T05:30:27.997Z,84.44
2019-05-23T05:31:27.967Z,84.55
2019-05-23T05:32:43.475Z,83.93
2019-05-23T05:33:28.936Z,83.93
2019-05-23T05:34:27.926Z,83.28
2019-05-23T05:35:27.941Z,83.18
2019-05-23T05:36:27.908Z,83.38
2019-05-23T05:37:27.894Z,82.77
2019-05-23T05:38:28.941Z,83.14
2019-05-23T05:39:27.876Z,82.36
2019-05-23T05:40:27.875Z,82.12
2019-05-23T05:41:27.851Z,82.12
2019-05-23T05:42:27.839Z,81.81
2019-05-23T05:43:27.832Z,81.91
2019-05-23T05:44:27.822Z,82.01
2019-05-23T05:45:27.829Z,81.81
2019-05-23T05:46:27.795Z,81.46
2019-05-23T05:47:27.791Z,81.67
2019-05-23T05:48:27.794Z,81.26
2019-05-23T05:49:27.768Z,80.55
2019-05-23T05:50:27.796Z,80.55
2019-05-23T05:51:27.739Z,80.55
2019-05-23T05:52:27.730Z,80.20
2019-05-23T05:53:27.762Z,80.00
2019-05-23T05:54:27.719Z,79.90
2019-05-23T05:55:27.716Z,79.39
2019-05-23T05:56:27.684Z,79.66
2019-05-23T05:57:27.674Z,78.94
2019-05-23T05:58:27.664Z,79.25
2019-05-23T05:59:27.654Z,79.18
2019-05-23T06:00:27.664Z,79.25
2019-05-23T06:01:33.861Z,79.25
2019-05-23T06:02:27.641Z,78.94
2019-05-23T06:03:27.618Z,77.92
2019-05-23T06:04:27.600Z,77.89
2019-05-23T06:05:27.626Z,78.19
2019-05-23T06:06:27.584Z,78.30
2019-05-23T06:07:27.558Z,77.07
2019-05-23T06:08:27.560Z,77.48
2019-05-23T06:09:27.547Z,77.58
2019-05-23T06:10:27.547Z,77.48
2019-05-23T06:11:27.583Z,77.78
2019-05-23T06:12:27.512Z,77.68
2019-05-23T06:13:27.497Z,77.27
2019-05-23T06:14:27.486Z,76.01
2019-05-23T06:15:27.469Z,76.62
2019-05-23T06:16:27.483Z,76.22
2019-05-23T06:17:27.450Z,76.12
2019-05-23T06:18:27.443Z,75.92
2019-05-23T06:19:27.434Z,75.81
2019-05-23T06:20:27.435Z,75.57
2019-05-23T06:21:27.437Z,75.57
2019-05-23T06:22:27.423Z,75.88
2019-05-23T06:23:27.392Z,75.06
2019-05-23T06:24:41.590Z,74.55
2019-05-23T06:25:28.370Z,74.86
2019-05-23T06:26:27.373Z,74.04
2019-05-23T06:27:27.353Z,73.74
2019-05-23T06:28:27.329Z,74.25
2019-05-23T06:29:27.317Z,74.35
2019-05-23T06:30:27.306Z,73.23
2019-05-23T06:31:27.310Z,72.92
2019-05-23T06:32:27.286Z,73.54
2019-05-23T06:33:27.282Z,74.65
2019-05-23T06:34:27.264Z,74.41
2019-05-23T06:35:27.262Z,73.91
2019-05-23T06:36:27.260Z,73.30
2019-05-23T06:37:27.222Z,72.99
2019-05-23T06:38:27.211Z,72.96
2019-05-23T06:39:27.216Z,72.75
2019-05-23T06:40:27.220Z,72.55
2019-05-23T06:41:27.209Z,72.34
2019-05-23T06:42:27.176Z,72.01
2019-05-23T06:43:27.236Z,71.70
2019-05-23T06:44:27.152Z,71.30
2019-05-23T06:45:27.136Z,71.60
2019-05-23T06:46:27.138Z,71.30
2019-05-23T06:47:27.138Z,71.19
2019-05-23T06:48:27.111Z,71.50
2019-05-23T06:49:27.108Z,71.09
2019-05-23T06:50:27.091Z,71.19
2019-05-23T06:51:27.095Z,72.11
2019-05-23T06:52:27.064Z,71.06
2019-05-23T06:53:27.049Z,70.35
2019-05-23T06:54:27.035Z,70.14
2019-05-23T06:55:27.027Z,70.35
2019-05-23T06:56:27.034Z,70.04
2019-05-23T06:57:27.009Z,70.75
2019-05-23T06:58:27.029Z,69.91
2019-05-23T06:59:26.982Z,69.09
2019-05-23T07:00:26.974Z,69.94
2019-05-23T07:01:26.989Z,69.64
2019-05-23T07:02:30.889Z,69.81
2019-05-23T07:03:41.186Z,69.60
2019-05-23T07:04:27.925Z,69.74
2019-05-23T07:05:26.918Z,69.53
2019-05-23T07:06:26.902Z,69.20
2019-05-23T07:07:26.903Z,69.20
2019-05-23T07:08:26.876Z,68.89
2019-05-23T07:09:26.869Z,68.66
2019-05-23T07:10:26.863Z,68.49
2019-05-23T07:11:26.846Z,67.88
2019-05-23T07:12:26.850Z,68.79
2019-05-23T07:13:26.842Z,70.21
2019-05-23T07:14:26.810Z,68.79
2019-05-23T07:15:26.806Z,68.66
2019-05-23T07:16:26.791Z,68.15
2019-05-23T07:17:26.798Z,68.42
2019-05-23T07:18:26.772Z,68.01
2019-05-23T07:19:26.756Z,67.20
2019-05-23T07:20:26.752Z,67.10
2019-05-23T07:21:26.755Z,65.78
2019-05-23T07:22:26.753Z,66.63
2019-05-23T07:23:26.715Z,66.49
2019-05-23T07:24:26.699Z,65.99
2019-05-23T07:25:26.695Z,67.00
2019-05-23T07:26:26.684Z,66.90
2019-05-23T07:27:26.686Z,66.08
2019-05-23T07:28:26.654Z,67.50
2019-05-23T07:29:26.639Z,67.07
2019-05-23T07:30:26.647Z,64.73
2019-05-23T07:31:26.624Z,64.87
2019-05-23T07:32:26.637Z,65.78
2019-05-23T07:33:26.605Z,67.17
2019-05-23T07:34:26.598Z,65.85
2019-05-23T07:35:26.620Z,65.99
2019-05-23T07:36:26.578Z,65.45
2019-05-23T07:37:26.554Z,65.95
2019-05-23T07:38:26.565Z,65.75
2019-05-23T07:39:26.536Z,65.82
2019-05-23T07:40:26.559Z,65.21
2019-05-23T07:41:26.508Z,64.91
2019-05-23T07:42:26.501Z,64.30
2019-05-23T07:43:26.511Z,64.10
2019-05-23T07:44:26.486Z,64.40
2019-05-23T07:45:26.471Z,64.50
2019-05-23T07:46:26.454Z,63.66
2019-05-23T07:47:26.452Z,63.46
2019-05-23T07:48:26.463Z,63.96
2019-05-23T07:49:26.432Z,63.06
2019-05-23T07:50:26.415Z,61.36
2019-05-23T07:51:29.639Z,61.94
2019-05-23T07:52:26.389Z,63.06
2019-05-23T07:53:26.411Z,63.06
2019-05-23T07:54:26.371Z,62.24
2019-05-23T07:55:26.362Z,62.24
2019-05-23T07:56:26.348Z,62.24
2019-05-23T07:57:26.331Z,62.14
2019-05-23T07:58:26.341Z,62.04
2019-05-23T07:59:26.324Z,62.14
2019-05-23T08:00:26.302Z,61.66
2019-05-23T08:01:26.337Z,62.24
2019-05-23T08:02:26.555Z,62.37
2019-05-23T08:03:26.294Z,62.14
2019-05-23T08:04:26.254Z,63.96
2019-05-23T08:05:26.265Z,62.52
2019-05-23T08:06:26.239Z,61.60
2019-05-23T08:07:26.229Z,61.10
2019-05-23T08:08:26.269Z,61.30
2019-05-23T08:09:26.208Z,59.58
2019-05-23T08:10:33.932Z,60.42
2019-05-23T08:11:27.210Z,59.00
2019-05-23T08:12:26.186Z,60.42
2019-05-23T08:13:26.180Z,61.02
2019-05-23T08:14:26.143Z,61.13
2019-05-23T08:15:26.146Z,61.02
2019-05-23T08:16:26.121Z,60.82
2019-05-23T08:17:26.115Z,59.48
2019-05-23T08:18:26.112Z,60.69
2019-05-23T08:19:26.085Z,61.51
2019-05-23T08:20:26.078Z,59.95
2019-05-23T08:21:26.075Z,58.13
2019-05-23T08:22:26.058Z,59.85
2019-05-23T08:23:26.075Z,60.57
2019-05-23T08:24:26.040Z,59.45
2019-05-23T08:25:26.022Z,57.83
2019-05-23T08:26:26.005Z,57.53
2019-05-23T08:27:26.001Z,57.29
2019-05-23T08:28:26.008Z,57.50
2019-05-23T08:29:26.916Z,57.09
2019-05-23T08:30:25.961Z,57.70
2019-05-23T08:31:25.956Z,58.31
2019-05-23T08:32:25.943Z,55.68
2019-05-23T08:33:25.949Z,55.88
2019-05-23T08:34:40.825Z,56.28
2019-05-23T08:35:26.906Z,56.18
2019-05-23T08:36:25.893Z,55.77
2019-05-23T08:37:25.884Z,57.20
2019-05-23T08:38:25.890Z,55.77
2019-05-23T08:39:25.879Z,56.76
2019-05-23T08:40:25.857Z,56.86
2019-05-23T08:41:25.853Z,57.07
2019-05-23T08:42:25.833Z,57.44
2019-05-23T08:43:25.834Z,57.54
2019-05-23T08:44:25.809Z,57.67
2019-05-23T08:45:25.802Z,57.87
2019-05-23T08:46:25.791Z,56.73
2019-05-23T08:47:25.776Z,57.14
2019-05-23T08:48:25.785Z,56.73
2019-05-23T08:49:25.749Z,55.90
2019-05-23T08:50:25.740Z,54.79
2019-05-23T08:51:25.730Z,54.91
2019-05-23T08:52:25.721Z,54.31
2019-05-23T08:53:25.731Z,54.51
2019-05-23T08:54:25.699Z,54.71
2019-05-23T08:55:25.722Z,55.44
2019-05-23T08:56:25.687Z,55.65
2019-05-23T08:57:25.667Z,53.93
2019-05-23T08:58:25.671Z,54.97
2019-05-23T08:59:25.640Z,54.64
2019-05-23T09:00:25.631Z,54.71
2019-05-23T09:01:25.620Z,53.50
2019-05-23T09:02:25.613Z,52.89
2019-05-23T09:03:25.618Z,53.50
2019-05-23T09:04:25.665Z,53.58
2019-05-23T09:05:25.577Z,52.97
2019-05-23T09:06:25.564Z,52.03
2019-05-23T09:07:25.554Z,51.23
2019-05-23T09:08:25.566Z,50.62
2019-05-23T09:09:29.799Z,49.71
2019-05-23T09:10:25.526Z,51.03
2019-05-23T09:11:25.539Z,52.03
2019-05-23T09:12:25.496Z,51.73
2019-05-23T09:13:25.511Z,52.44
2019-05-23T09:14:25.480Z,53.65
2019-05-23T09:15:25.470Z,53.55
2019-05-23T09:16:25.454Z,53.63
2019-05-23T09:17:25.438Z,53.12
2019-05-23T09:18:25.452Z,53.20
2019-05-23T09:19:25.414Z,53.00
2019-05-23T09:20:25.403Z,51.78
2019-05-23T09:21:25.396Z,48.96
2019-05-23T09:22:25.383Z,49.04
2019-05-23T09:23:25.394Z,47.82
2019-05-23T09:24:25.366Z,48.43
2019-05-23T09:25:25.356Z,49.04
2019-05-23T09:26:25.350Z,49.82
2019-05-23T09:27:25.339Z,49.82
2019-05-23T09:28:25.414Z,50.22
2019-05-23T09:29:25.334Z,48.43
2019-05-23T09:30:25.296Z,49.44
2019-05-23T09:31:25.293Z,48.45
2019-05-23T09:32:25.317Z,49.46
2019-05-23T09:33:25.283Z,49.96
2019-05-23T09:34:25.250Z,49.16
2019-05-23T09:35:25.249Z,47.97
2019-05-23T09:36:25.233Z,47.95
2019-05-23T09:37:25.221Z,47.64
2019-05-23T09:38:25.226Z,48.15
2019-05-23T09:39:25.201Z,48.96
2019-05-23T09:40:25.200Z,48.65
2019-05-23T09:41:25.177Z,48.73
2019-05-23T09:42:25.164Z,49.13
2019-05-23T09:43:25.177Z,46.71
2019-05-23T09:44:25.150Z,47.12
2019-05-23T09:45:25.130Z,46.51
2019-05-23T09:46:25.127Z,46.31
2019-05-23T09:47:25.105Z,47.12
2019-05-23T09:48:25.117Z,46.51
2019-05-23T09:49:25.094Z,47.14
2019-05-23T09:50:25.086Z,48.63
2019-05-23T09:51:25.074Z,47.82
2019-05-23T09:52:25.062Z,46.39
2019-05-23T09:53:25.056Z,45.90
2019-05-23T09:54:25.068Z,45.90
2019-05-23T09:55:25.021Z,46.29
2019-05-23T09:56:25.011Z,46.29
2019-05-23T09:57:24.997Z,46.99
2019-05-23T09:58:24.997Z,46.49
2019-05-23T09:59:24.989Z,48.08
2019-05-23T10:00:24.959Z,47.98
2019-05-23T10:01:24.955Z,47.27
2019-05-23T10:02:24.944Z,46.85
2019-05-23T10:03:24.977Z,47.17
2019-05-23T10:04:24.914Z,48.89
2019-05-23T10:05:41.858Z,44.25
2019-05-23T10:06:25.897Z,45.24
2019-05-23T10:07:24.926Z,45.44
2019-05-23T10:08:24.967Z,44.13
2019-05-23T10:09:24.866Z,44.61
2019-05-23T10:10:24.849Z,43.10
2019-05-23T10:11:24.843Z,43.48
2019-05-23T10:12:24.833Z,42.33
2019-05-23T10:13:38.551Z,41.51
2019-05-23T10:14:25.801Z,42.30
2019-05-23T10:15:24.801Z,41.37
2019-05-23T10:16:24.783Z,41.45
2019-05-23T10:17:24.940Z,41.23
2019-05-23T10:18:24.789Z,39.21
2019-05-23T10:19:24.753Z,38.37
2019-05-23T10:20:24.745Z,36.55
2019-05-23T10:21:24.727Z,37.03
2019-05-23T10:22:24.720Z,36.71
2019-05-23T10:23:24.725Z,35.80
2019-05-23T10:24:24.709Z,34.59
2019-05-23T10:25:24.691Z,34.61
2019-05-23T10:26:24.696Z,34.68
2019-05-23T10:27:24.671Z,32.36
2019-05-23T10:28:24.677Z,33.83
2019-05-23T10:29:24.644Z,32.22
2019-05-23T10:30:24.635Z,31.89
2019-05-23T10:31:24.628Z,32.45
2019-05-23T10:32:24.613Z,32.53
2019-05-23T10:33:24.617Z,31.90
2019-05-23T10:34:24.598Z,29.30
2019-05-23T10:35:24.589Z,28.72
2019-05-23T10:36:24.575Z,29.65
2019-05-23T10:37:24.580Z,29.47
2019-05-23T10:38:24.571Z,30.46
2019-05-23T10:39:24.539Z,30.56
2019-05-23T10:40:24.532Z,30.75
2019-05-23T10:41:24.522Z,30.43
2019-05-23T10:42:24.508Z,30.43
2019-05-23T10:43:24.515Z,29.71
2019-05-23T10:44:24.587Z,30.77
2019-05-23T10:45:24.481Z,29.07
2019-05-23T10:46:24.472Z,29.16
2019-05-23T10:47:24.472Z,30.23
2019-05-23T10:48:24.479Z,29.14
2019-05-23T10:49:24.451Z,29.03
2019-05-23T10:50:24.435Z,28.52
2019-05-23T10:51:24.452Z,28.41
2019-05-23T10:52:24.418Z,28.20
2019-05-23T10:53:24.432Z,27.77
2019-05-23T10:54:24.404Z,27.86
2019-05-23T10:55:24.393Z,27.45
2019-05-23T10:56:24.380Z,26.38
2019-05-23T10:57:24.364Z,26.49
2019-05-23T10:58:24.484Z,26.70
2019-05-23T10:59:24.339Z,25.72
2019-05-23T11:00:24.333Z,26.61
2019-05-23T11:01:24.333Z,27.59
2019-05-23T11:02:27.016Z,27.09
2019-05-23T11:03:24.337Z,27.97
2019-05-23T11:04:24.297Z,27.39
2019-05-23T11:05:24.292Z,27.72
2019-05-23T11:06:24.291Z,27.98
2019-05-23T11:07:24.312Z,27.08
2019-05-23T11:08:28.150Z,27.87
2019-05-23T11:09:37.432Z,27.47
2019-05-23T11:10:25.241Z,26.60
2019-05-23T11:11:24.256Z,28.11
2019-05-23T11:12:24.232Z,27.62
2019-05-23T11:13:24.246Z,28.01
2019-05-23T11:14:24.215Z,28.59
2019-05-23T11:15:24.208Z,27.09
2019-05-23T11:16:24.188Z,27.69
2019-05-23T11:17:24.181Z,28.06
2019-05-23T11:18:24.196Z,27.04
2019-05-23T11:19:24.171Z,27.51
2019-05-23T11:20:24.209Z,26.21
2019-05-23T11:21:24.164Z,24.24
2019-05-23T11:22:24.140Z,26.36
2019-05-23T11:23:24.159Z,26.77
2019-05-23T11:24:24.130Z,27.56
2019-05-23T11:25:24.109Z,27.64
2019-05-23T11:26:24.104Z,27.64
2019-05-23T11:27:24.102Z,28.33
2019-05-23T11:28:24.100Z,27.35
2019-05-23T11:29:27.177Z,28.18
2019-05-23T11:30:24.067Z,28.18
2019-05-23T11:31:24.060Z,28.31
2019-05-23T11:32:24.056Z,28.80
2019-05-23T11:33:24.062Z,28.69
2019-05-23T11:34:24.039Z,28.88
2019-05-23T11:35:24.023Z,28.20
2019-05-23T11:36:34.736Z,27.53
2019-05-23T11:37:25.007Z,28.73
2019-05-23T11:38:24.014Z,29.10
2019-05-23T11:39:24.003Z,27.49
2019-05-23T11:40:23.982Z,27.08
2019-05-23T11:41:23.978Z,26.57
2019-05-23T11:42:23.950Z,26.07
2019-05-23T11:43:24.090Z,26.04
2019-05-23T11:44:23.931Z,24.27
2019-05-23T11:45:23.939Z,23.59
2019-05-23T11:46:23.920Z,26.65
2019-05-23T11:47:23.916Z,24.38
2019-05-23T11:48:23.919Z,24.69
2019-05-23T11:49:23.895Z,26.61
2019-05-23T11:50:23.884Z,27.60
2019-05-23T11:51:25.539Z,27.40
2019-05-23T11:52:23.857Z,28.34
2019-05-23T11:53:23.870Z,28.75
2019-05-23T11:54:23.835Z,28.53
2019-05-23T11:55:23.827Z,28.36
2019-05-23T11:56:23.881Z,28.89
2019-05-23T11:57:23.824Z,30.30
2019-05-23T11:58:23.834Z,32.01
2019-05-23T11:59:23.791Z,31.71
2019-05-23T12:00:23.782Z,33.30
2019-05-23T12:01:23.767Z,33.70
2019-05-23T12:02:23.749Z,34.20
2019-05-23T12:03:23.760Z,32.89
2019-05-23T12:04:23.730Z,30.80
2019-05-23T12:05:23.731Z,31.10
2019-05-23T12:06:26.365Z,30.60
2019-05-23T12:07:23.716Z,31.02
2019-05-23T12:08:23.790Z,31.51
2019-05-23T12:09:23.701Z,32.12
2019-05-23T12:10:23.676Z,32.04
2019-05-23T12:11:23.658Z,33.18
2019-05-23T12:12:23.647Z,34.63
2019-05-23T12:13:23.646Z,36.24
2019-05-23T12:14:23.623Z,35.54
2019-05-23T12:15:23.612Z,35.86
2019-05-23T12:16:23.609Z,35.46
2019-05-23T12:17:23.593Z,35.19
2019-05-23T12:18:23.591Z,36.19
2019-05-23T12:19:23.707Z,37.49
2019-05-23T12:20:23.558Z,35.80
2019-05-23T12:21:23.624Z,36.01
2019-05-23T12:22:23.532Z,36.51
2019-05-23T12:23:23.541Z,38.43
2019-05-23T12:24:23.510Z,37.21
2019-05-23T12:25:23.722Z,36.99
2019-05-23T12:26:23.488Z,38.48
2019-05-23T12:27:23.488Z,38.68
2019-05-23T12:28:23.496Z,38.07
2019-05-23T12:29:23.461Z,38.26
2019-05-23T12:30:23.449Z,37.36
2019-05-23T12:31:23.437Z,38.38
2019-05-23T12:32:23.451Z,37.58
2019-05-23T12:33:23.446Z,37.08
2019-05-23T12:34:23.409Z,37.71
2019-05-23T12:35:23.398Z,38.43
2019-05-23T12:36:23.384Z,38.25
2019-05-23T12:37:23.370Z,39.87
2019-05-23T12:38:23.381Z,39.37
2019-05-23T12:39:23.353Z,39.99
2019-05-23T12:40:23.350Z,41.99
2019-05-23T12:41:23.342Z,41.77
2019-05-23T12:42:23.314Z,41.25
2019-05-23T12:43:23.321Z,41.03
2019-05-23T12:44:23.293Z,41.33
2019-05-23T12:45:23.288Z,39.53
2019-05-23T12:46:23.287Z,39.83
2019-05-23T12:47:23.264Z,40.35
2019-05-23T12:48:23.274Z,39.07
2019-05-23T12:49:23.246Z,40.29
2019-05-23T12:50:23.234Z,41.31
2019-05-23T12:51:23.259Z,40.51
2019-05-23T12:52:23.205Z,41.11